Time;durP1;ratioP1;P1;durP2;ratioP2;P2;SDS_P1;SDS_P2;PMS_P1;PMS_P2;Temp;Humidity;BMP_temperature;BMP_pressure;BME280_temperature;BME280_humidity;BME280_pressure;Samples;Min_cycle;Max_cycle;Signal;HPM_P1;HPM_P2
2021/05/14 00:03:33;;;;;;;5.50;1.30;;;16.60;45.90;;;;;;20912148;28;20056;-59
2021/05/14 00:13:34;;;;;;;3.50;1.60;;;16.50;45.60;;;;;;20912241;28;20128;-59
2021/05/14 00:23:36;;;;;;;3.20;1.00;;;16.40;45.90;;;;;;20911919;28;20505;-60
2021/05/14 00:33:37;;;;;;;4.60;1.17;;;16.30;46.40;;;;;;20910614;28;20428;-60
2021/05/14 00:43:38;;;;;;;3.63;0.98;;;16.20;46.50;;;;;;20925638;28;20465;-64
2021/05/14 00:53:39;;;;;;;4.43;1.25;;;16.20;47.20;;;;;;20925803;28;20485;-60
2021/05/14 01:03:41;;;;;;;2.88;0.90;;;16.20;47.90;;;;;;20924901;28;20144;-60
2021/05/14 01:13:42;;;;;;;3.22;1.08;;;16.20;48.00;;;;;;20925038;28;20080;-60
2021/05/14 01:23:43;;;;;;;3.80;1.33;;;16.00;48.30;;;;;;20922992;28;20495;-61
2021/05/14 01:33:46;;;;;;;2.65;0.90;;;15.90;49.60;;;;;;20922591;28;20056;-60
2021/05/14 01:43:47;;;;;;;4.25;1.13;;;15.90;50.20;;;;;;20921003;28;20092;-62
2021/05/14 01:53:50;;;;;;;2.40;1.30;;;15.80;50.50;;;;;;20920636;28;20122;-60
2021/05/14 02:03:51;;;;;;;5.40;1.40;;;15.90;51.00;;;;;;20921871;28;20598;-59
2021/05/14 02:13:53;;;;;;;2.13;1.10;;;15.70;51.50;;;;;;20919695;28;20394;-62
2021/05/14 02:23:54;;;;;;;4.82;1.17;;;15.70;52.20;;;;;;20918509;28;20059;-60
2021/05/14 02:33:56;;;;;;;5.45;1.30;;;15.60;52.50;;;;;;20917904;28;20057;-60
2021/05/14 02:43:57;;;;;;;3.92;1.40;;;15.60;52.80;;;;;;20916847;28;20084;-61
2021/05/14 02:53:59;;;;;;;4.75;1.17;;;15.60;52.90;;;;;;20916639;28;20485;-60
2021/05/14 03:04:01;;;;;;;3.50;1.40;;;15.50;53.70;;;;;;20915507;28;20048;-59
2021/05/14 03:14:03;;;;;;;4.03;1.15;;;15.40;53.40;;;;;;20913720;28;20047;-60
2021/05/14 03:24:05;;;;;;;2.50;0.90;;;15.20;53.80;;;;;;20914828;28;20081;-61
2021/05/14 03:34:06;;;;;;;4.13;1.00;;;15.10;54.50;;;;;;20913550;28;20053;-59
2021/05/14 03:44:07;;;;;;;4.20;0.98;;;15.10;54.60;;;;;;20913001;28;20049;-60
2021/05/14 03:54:09;;;;;;;2.53;0.88;;;15.10;54.40;;;;;;20913046;28;20096;-60
2021/05/14 04:04:10;;;;;;;2.20;0.90;;;15.00;54.90;;;;;;20912003;28;20067;-59
2021/05/14 04:14:30;;;;;;;4.50;1.88;;;15.10;54.90;;;;;;20921618;28;20049;-60
2021/05/14 04:24:31;;;;;;;4.40;1.00;;;15.00;55.20;;;;;;20929160;28;20087;-64
2021/05/14 04:34:33;;;;;;;2.63;1.10;;;14.90;55.50;;;;;;20927206;28;20080;-63
2021/05/14 04:44:34;;;;;;;3.80;1.20;;;14.80;55.80;;;;;;20926833;28;20524;-62
2021/05/14 04:54:35;;;;;;;6.07;2.63;;;14.90;55.90;;;;;;20926192;28;20056;-63
2021/05/14 05:04:37;;;;;;;5.00;1.40;;;15.00;55.30;;;;;;20926170;28;20128;-62
2021/05/14 05:14:40;;;;;;;4.93;2.30;;;15.00;55.10;;;;;;20928235;28;20505;-60
2021/05/14 05:24:41;;;;;;;7.80;3.53;;;14.90;55.50;;;;;;20923199;28;20480;-60
2021/05/14 05:34:42;;;;;;;3.22;1.17;;;14.90;55.40;;;;;;20922492;28;20147;-63
2021/05/14 05:44:44;;;;;;;4.15;1.65;;;15.10;54.80;;;;;;20922289;28;20102;-59
2021/05/14 05:54:45;;;;;;;3.55;1.30;;;15.10;53.90;;;;;;20920415;28;20088;-59
2021/05/14 06:04:47;;;;;;;3.03;1.63;;;15.20;54.40;;;;;;20919444;28;20088;-60
2021/05/14 06:14:50;;;;;;;2.33;1.20;;;15.30;53.40;;;;;;20917845;28;20084;-59
2021/05/14 06:24:51;;;;;;;3.23;1.00;;;15.50;52.60;;;;;;20919022;28;20135;-62
2021/05/14 06:34:54;;;;;;;6.35;1.10;;;15.60;52.80;;;;;;20917339;28;20053;-59
2021/05/14 06:44:56;;;;;;;3.83;1.08;;;15.70;52.00;;;;;;20915979;28;20140;-59
2021/05/14 06:54:57;;;;;;;3.45;1.10;;;15.70;51.30;;;;;;20916669;28;20049;-60
2021/05/14 07:04:59;;;;;;;2.90;1.02;;;16.00;50.20;;;;;;20916302;28;20053;-59
2021/05/14 07:15:02;;;;;;;16.20;12.15;;;17.10;48.20;;;;;;20914645;28;20087;-59
2021/05/14 07:25:04;;;;;;;21.92;2.67;;;17.80;45.80;;;;;;20914156;28;20551;-59
2021/05/14 07:35:06;;;;;;;2.80;1.13;;;18.40;44.50;;;;;;20911931;28;20127;-59
2021/05/14 07:45:08;;;;;;;2.60;0.80;;;18.90;42.80;;;;;;20911950;28;20084;-60
2021/05/14 07:55:10;;;;;;;2.55;0.60;;;19.20;41.60;;;;;;20912314;28;20087;-62
2021/05/14 08:05:11;;;;;;;1.88;1.00;;;19.50;40.50;;;;;;20911122;28;20152;-60
2021/05/14 08:15:13;;;;;;;1.85;1.00;;;20.00;39.80;;;;;;20911152;28;20080;-60
2021/05/14 08:25:15;;;;;;;2.15;0.77;;;20.40;38.90;;;;;;20910418;28;20468;-59
2021/05/14 08:35:16;;;;;;;3.58;0.80;;;20.70;37.80;;;;;;20911390;28;20060;-60
2021/05/14 08:45:18;;;;;;;2.05;0.70;;;20.90;36.90;;;;;;20909318;28;20084;-60
2021/05/14 08:55:23;;;;;;;1.33;0.70;;;20.90;36.60;;;;;;20940786;28;20049;-61
2021/05/14 09:05:29;;;;;;;5.05;1.15;;;21.10;36.10;;;;;;20926739;28;20088;-59
2021/05/14 09:15:35;;;;;;;1.25;0.60;;;21.60;35.70;;;;;;20924549;28;20090;-60
2021/05/14 09:25:48;;;;;;;1.60;0.75;;;21.50;35.10;;;;;;20923777;28;20161;-60
2021/05/14 09:35:55;;;;;;;;;;;21.60;35.00;;;;;;20923557;28;20076;-59
2021/05/14 09:45:56;;;;;;;2.28;0.82;;;21.50;35.30;;;;;;20923033;28;20015;-61
2021/05/14 09:56:03;;;;;;;1.95;0.95;;;21.50;35.00;;;;;;20921460;28;20120;-61
2021/05/14 10:06:07;;;;;;;4.88;1.08;;;21.70;37.20;;;;;;20919625;28;20144;-60
2021/05/14 10:16:08;;;;;;;1.20;0.57;;;21.70;36.60;;;;;;20917764;28;20051;-59
2021/05/14 10:26:11;;;;;;;2.55;1.20;;;21.70;35.10;;;;;;20918531;28;20080;-59
2021/05/14 10:36:50;;;;;;;2.73;0.73;;;21.50;35.50;;;;;;20918130;28;20095;-61
2021/05/14 10:46:52;;;;;;;4.68;1.17;;;21.50;38.20;;;;;;20913834;28;20092;-60
2021/05/14 10:56:53;;;;;;;2.35;0.80;;;21.30;36.90;;;;;;20917142;28;20128;-59
2021/05/14 11:06:55;;;;;;;2.70;1.30;;;21.40;35.80;;;;;;20915400;28;20140;-59
2021/05/14 11:16:57;;;;;;;11.30;1.00;;;21.40;34.70;;;;;;20914948;28;20088;-59
2021/05/14 11:27:02;;;;;;;2.45;0.80;;;21.40;33.60;;;;;;20914701;28;20135;-58
2021/05/14 11:37:03;;;;;;;2.45;1.00;;;21.40;33.50;;;;;;20914328;28;20251;-59
2021/05/14 11:47:06;;;;;;;2.25;0.60;;;21.50;32.10;;;;;;20911694;28;20496;-60
2021/05/14 11:57:07;;;;;;;2.53;1.07;;;21.40;30.60;;;;;;20912847;28;20156;-59
2021/05/14 12:07:08;;;;;;;4.13;1.30;;;21.30;31.60;;;;;;20911335;28;20136;-59
2021/05/14 12:17:10;;;;;;;3.25;0.70;;;21.40;31.70;;;;;;20910824;28;20168;-59
2021/05/14 12:27:11;;;;;;;1.10;0.60;;;21.40;30.70;;;;;;20910480;28;20425;-60
2021/05/14 12:37:13;;;;;;;5.05;2.55;;;21.60;29.50;;;;;;20921470;28;20087;-60
2021/05/14 12:47:16;;;;;;;1.92;0.75;;;21.70;30.10;;;;;;20925891;28;20139;-61
2021/05/14 12:57:40;;;;;;;3.90;1.85;;;21.90;30.10;;;;;;20926207;28;20091;-60
2021/05/14 13:08:03;;;;;;;3.70;2.03;;;22.10;31.60;;;;;;20924802;28;20190;-60
2021/05/14 13:18:05;;;;;;;;;;;22.50;30.20;;;;;;20906336;28;20053;-63
2021/05/14 13:28:06;;;;;;;2.95;0.90;;;22.50;30.40;;;;;;20919333;28;20376;-59
2021/05/14 13:38:08;;;;;;;3.47;1.15;;;22.60;28.90;;;;;;20922371;28;20053;-58
2021/05/14 13:48:14;;;;;;;2.08;0.80;;;22.70;29.60;;;;;;20920760;28;20507;-58
2021/05/14 13:58:15;;;;;;;2.65;0.90;;;22.90;29.80;;;;;;20920643;28;20095;-58
2021/05/14 14:08:17;;;;;;;1.48;0.93;;;23.10;29.60;;;;;;20920091;28;20424;-61
2021/05/14 14:18:18;;;;;;;1.98;1.00;;;23.30;27.40;;;;;;20917588;28;20457;-60
2021/05/14 14:28:19;;;;;;;3.40;0.70;;;23.30;26.60;;;;;;20918755;28;20456;-58
2021/05/14 14:38:20;;;;;;;1.77;0.65;;;23.30;22.80;;;;;;20917558;28;20049;-61
2021/05/14 14:48:22;;;;;;;2.63;0.70;;;23.40;22.70;;;;;;20915907;28;20056;-58
2021/05/14 14:58:25;;;;;;;2.90;0.85;;;23.60;23.50;;;;;;20915015;28;20075;-57
2021/05/14 15:08:26;;;;;;;2.85;0.90;;;23.60;24.60;;;;;;20915011;28;20084;-58
2021/05/14 15:18:29;;;;;;;6.80;1.58;;;23.70;24.40;;;;;;20912963;28;20087;-59
2021/05/14 15:28:31;;;;;;;1.67;0.55;;;;;;;;;;20912667;28;20057;-67
2021/05/14 15:38:32;;;;;;;3.58;0.90;;;;;;;;;;20910977;28;20497;-61
2021/05/14 15:48:39;;;;;;;5.23;1.13;;;25.10;24.80;;;;;;20910204;28;20072;-60
2021/05/14 15:58:40;;;;;;;4.07;1.10;;;23.90;25.90;;;;;;20901186;28;20497;-60
2021/05/14 16:08:42;;;;;;;3.72;0.95;;;;;;;;;;20910456;28;20049;-61
2021/05/14 16:18:50;;;;;;;2.80;1.20;;;;;;;;;;20910805;28;20045;-64
2021/05/14 16:28:52;;;;;;;1.98;0.95;;;;;;;;;;20911013;28;20213;-59
2021/05/14 16:38:54;;;;;;;2.73;1.10;;;;;;;;;;20910369;28;20048;-63
2021/05/14 16:48:56;;;;;;;3.33;1.37;;;;;;;;;;20909887;28;20049;-67
2021/05/14 16:58:57;;;;;;;4.17;1.20;;;25.40;29.70;;;;;;20910135;28;20460;-63
2021/05/14 17:08:58;;;;;;;2.83;0.80;;;24.30;30.20;;;;;;20913253;28;20037;-60
2021/05/14 17:18:59;;;;;;;3.05;1.00;;;24.20;28.00;;;;;;20940666;28;20057;-60
2021/05/14 17:29:01;;;;;;;4.35;0.88;;;24.00;25.30;;;;;;20924041;28;20524;-62
2021/05/14 17:39:03;;;;;;;3.77;1.43;;;24.00;24.60;;;;;;20922710;28;20053;-62
2021/05/14 17:49:04;;;;;;;4.13;2.03;;;23.90;26.80;;;;;;20921449;28;20049;-61
2021/05/14 17:59:06;;;;;;;4.60;1.67;;;;;;;;;;20921409;28;20053;-61
2021/05/14 18:09:07;;;;;;;3.50;1.00;;;24.90;25.60;;;;;;20920109;28;20085;-57
2021/05/14 18:29:13;;;;;;;2.92;0.70;;;24.20;26.20;;;;;;20921064;28;20416;-62
2021/05/14 18:39:15;;;;;;;1.95;0.80;;;23.50;27.00;;;;;;20919347;28;20048;-60
2021/05/14 18:49:17;;;;;;;3.37;1.30;;;23.00;26.80;;;;;;20916916;28;20493;-61
2021/05/14 18:59:18;;;;;;;1.67;0.88;;;22.80;27.00;;;;;;20916860;28;20049;-61
2021/05/14 19:09:19;;;;;;;2.70;1.15;;;22.50;27.30;;;;;;20915838;28;20053;-60
2021/05/14 19:19:21;;;;;;;1.95;1.05;;;22.40;28.00;;;;;;20915966;28;20080;-60
2021/05/14 19:50:03;;;;;;;8.80;1.80;;;21.90;33.70;;;;;;20912661;28;20049;-60
2021/05/14 20:00:06;;;;;;;;;;;21.70;35.30;;;;;;20912416;28;20500;-60
2021/05/14 20:10:09;;;;;;;3.90;1.73;;;21.50;37.00;;;;;;20911947;28;20287;-59
2021/05/14 20:20:10;;;;;;;;;;;21.40;37.50;;;;;;20911958;28;20493;-60
2021/05/14 20:30:12;;;;;;;4.97;1.50;;;21.20;38.80;;;;;;20911093;28;19943;-60
2021/05/14 20:40:15;;;;;;;3.17;1.40;;;21.10;39.10;;;;;;20910688;28;20060;-60
2021/05/14 20:50:18;;;;;;;5.07;1.90;;;20.90;40.00;;;;;;20910659;28;20045;-60
2021/05/14 21:00:21;;;;;;;7.35;2.13;;;20.70;40.80;;;;;;20924798;28;20084;-61
2021/05/14 21:10:24;;;;;;;4.35;1.48;;;20.60;41.60;;;;;;20924911;28;20406;-59
2021/05/14 21:20:26;;;;;;;6.83;1.97;;;20.40;42.20;;;;;;20923570;28;20091;-60
2021/05/14 21:30:28;;;;;;;3.90;2.53;;;20.30;42.40;;;;;;20923300;28;20492;-59
2021/05/14 21:40:29;;;;;;;5.28;1.70;;;20.20;42.90;;;;;;20922709;28;20056;-60
2021/05/14 21:50:30;;;;;;;5.35;2.53;;;20.10;43.30;;;;;;20922478;28;20056;-61
2021/05/14 22:00:32;;;;;;;3.47;1.90;;;20.00;43.60;;;;;;20921214;28;20482;-61
2021/05/14 22:10:33;;;;;;;6.13;1.80;;;19.90;44.00;;;;;;20919480;28;20049;-61
2021/05/14 22:20:34;;;;;;;6.57;2.72;;;19.90;44.40;;;;;;20919199;28;20080;-60
2021/05/14 22:30:36;;;;;;;7.13;2.15;;;19.70;44.90;;;;;;20918510;28;20084;-60
2021/05/14 22:40:38;;;;;;;4.32;1.63;;;19.60;45.20;;;;;;20917784;28;20085;-60
2021/05/14 22:50:39;;;;;;;5.10;1.80;;;19.40;45.40;;;;;;20917851;28;20134;-59
2021/05/14 23:00:40;;;;;;;4.72;1.73;;;19.40;45.50;;;;;;20917240;28;20127;-59
2021/05/14 23:10:41;;;;;;;3.53;1.90;;;19.30;45.50;;;;;;20915968;28;20083;-60
2021/05/14 23:20:42;;;;;;;4.10;2.67;;;19.30;45.60;;;;;;20915743;28;20131;-60
2021/05/14 23:30:45;;;;;;;2.72;1.50;;;19.20;45.60;;;;;;20914949;28;20052;-60
2021/05/14 23:40:46;;;;;;;3.17;1.98;;;19.20;45.50;;;;;;20914431;28;20061;-60
2021/05/14 23:50:47;;;;;;;4.38;2.42;;;19.20;45.40;;;;;;20913570;28;20045;-61
